createdAt,value
2022-08-17T00:00:34.323Z,1005.29
2022-08-17T00:01:26.249Z,1005.30
2022-08-17T00:02:27.107Z,1005.29
2022-08-17T00:03:26.156Z,1005.31
2022-08-17T00:04:26.164Z,1005.30
2022-08-17T00:05:26.188Z,1005.34
2022-08-17T00:06:26.216Z,1005.33
2022-08-17T00:07:26.233Z,1005.34
2022-08-17T00:08:26.256Z,1005.32
2022-08-17T00:09:26.274Z,1005.33
2022-08-17T00:10:26.298Z,1005.34
2022-08-17T00:11:26.321Z,1005.35
2022-08-17T00:12:42.787Z,1005.32
2022-08-17T00:13:26.364Z,1005.32
2022-08-17T00:14:26.388Z,1005.28
2022-08-17T00:15:26.408Z,1005.32
2022-08-17T00:16:51.921Z,1005.35
2022-08-17T00:17:26.453Z,1005.32
2022-08-17T00:19:01.314Z,1005.33
2022-08-17T00:19:26.493Z,1005.32
2022-08-17T00:20:30.516Z,1005.33
2022-08-17T00:21:26.539Z,1005.34
2022-08-17T00:22:31.324Z,1005.34
2022-08-17T00:23:26.583Z,1005.33
2022-08-17T00:24:26.605Z,1005.36
2022-08-17T00:25:26.628Z,1005.38
2022-08-17T00:26:43.512Z,1005.39
2022-08-17T00:27:26.670Z,1005.39
2022-08-17T00:28:26.693Z,1005.42
2022-08-17T00:29:26.712Z,1005.41
2022-08-17T00:30:26.737Z,1005.40
2022-08-17T00:31:26.759Z,1005.44
2022-08-17T00:33:12.019Z,1005.44
2022-08-17T00:33:27.055Z,1005.45
2022-08-17T00:34:27.901Z,1005.43
2022-08-17T00:35:26.848Z,1005.47
2022-08-17T00:36:26.867Z,1005.47
2022-08-17T00:37:26.889Z,1005.45
2022-08-17T00:38:26.914Z,1005.40
2022-08-17T00:39:27.001Z,1005.41
2022-08-17T00:40:26.957Z,1005.42
2022-08-17T00:41:26.978Z,1005.44
2022-08-17T00:42:30.941Z,1005.43
2022-08-17T00:43:27.022Z,1005.42
2022-08-17T00:44:28.865Z,1005.42
2022-08-17T00:45:27.068Z,1005.44
2022-08-17T00:46:27.088Z,1005.45
2022-08-17T00:47:27.113Z,1005.44
2022-08-17T00:48:29.930Z,1005.49
2022-08-17T00:49:27.153Z,1005.47
2022-08-17T00:50:27.179Z,1005.50
2022-08-17T00:51:27.198Z,1005.54
2022-08-17T00:52:27.218Z,1005.50
2022-08-17T00:53:27.237Z,1005.54
2022-08-17T00:54:27.262Z,1005.48
2022-08-17T00:55:27.285Z,1005.47
2022-08-17T00:56:27.308Z,1005.47
2022-08-17T00:57:27.329Z,1005.46
2022-08-17T00:58:35.729Z,1005.49
2022-08-17T00:59:27.374Z,1005.49
2022-08-17T01:00:27.394Z,1005.48
2022-08-17T01:01:27.455Z,1005.48
2022-08-17T01:02:27.438Z,1005.48
2022-08-17T01:03:27.458Z,1005.48
2022-08-17T01:04:27.483Z,1005.51
2022-08-17T01:05:27.502Z,1005.51
2022-08-17T01:06:27.523Z,1005.49
2022-08-17T01:07:27.546Z,1005.51
2022-08-17T01:08:27.569Z,1005.48
2022-08-17T01:09:27.590Z,1005.52
2022-08-17T01:11:00.677Z,1005.57
2022-08-17T01:11:27.634Z,1005.57
2022-08-17T01:12:27.653Z,1005.58
2022-08-17T01:13:27.683Z,1005.59
2022-08-17T01:14:27.698Z,1005.63
2022-08-17T01:15:27.721Z,1005.57
2022-08-17T01:16:27.743Z,1005.61
2022-08-17T01:17:27.764Z,1005.56
2022-08-17T01:18:27.785Z,1005.57
2022-08-17T01:19:27.807Z,1005.56
2022-08-17T01:20:27.831Z,1005.57
2022-08-17T01:21:27.852Z,1005.59
2022-08-17T01:22:27.871Z,1005.56
2022-08-17T01:23:27.897Z,1005.56
2022-08-17T01:24:27.921Z,1005.57
2022-08-17T01:25:27.939Z,1005.58
2022-08-17T01:26:27.961Z,1005.60
2022-08-17T01:27:27.981Z,1005.58
2022-08-17T01:28:53.109Z,1005.60
2022-08-17T01:29:28.025Z,1005.60
2022-08-17T01:30:58.091Z,1005.54
2022-08-17T01:31:28.071Z,1005.52
2022-08-17T01:32:28.101Z,1005.56
2022-08-17T01:33:28.113Z,1005.62
2022-08-17T01:34:43.023Z,1005.61
2022-08-17T01:35:28.162Z,1005.60
2022-08-17T01:36:28.177Z,1005.62
2022-08-17T01:37:28.197Z,1005.65
2022-08-17T01:38:28.220Z,1005.62
2022-08-17T01:39:28.256Z,1005.58
2022-08-17T01:40:28.264Z,1005.61
2022-08-17T01:41:28.316Z,1005.58
2022-08-17T01:42:28.307Z,1005.59
2022-08-17T01:43:28.327Z,1005.60
2022-08-17T01:44:28.351Z,1005.62
2022-08-17T01:45:28.370Z,1005.62
2022-08-17T01:46:28.392Z,1005.63
2022-08-17T01:47:28.415Z,1005.63
2022-08-17T01:48:28.436Z,1005.63
2022-08-17T01:49:28.457Z,1005.64
2022-08-17T01:50:28.482Z,1005.67
2022-08-17T01:51:28.501Z,1005.69
2022-08-17T01:52:28.521Z,1005.70
2022-08-17T01:53:28.544Z,1005.68
2022-08-17T01:54:28.566Z,1005.69
2022-08-17T01:55:28.587Z,1005.65
2022-08-17T01:56:28.610Z,1005.66
2022-08-17T01:57:28.631Z,1005.70
2022-08-17T01:58:28.653Z,1005.66
2022-08-17T01:59:28.672Z,1005.63
2022-08-17T02:00:28.768Z,1005.65
2022-08-17T02:01:28.746Z,1005.63
2022-08-17T02:02:30.557Z,1005.65
2022-08-17T02:03:28.761Z,1005.62
2022-08-17T02:04:28.783Z,1005.61
2022-08-17T02:05:28.804Z,1005.63
2022-08-17T02:06:28.825Z,1005.66
2022-08-17T02:07:28.845Z,1005.65
2022-08-17T02:08:38.969Z,1005.66
2022-08-17T02:09:29.822Z,1005.66
2022-08-17T02:10:34.001Z,1005.65
2022-08-17T02:11:28.932Z,1005.66
2022-08-17T02:12:37.586Z,1005.67
2022-08-17T02:13:28.977Z,1005.68
2022-08-17T02:14:28.996Z,1005.65
2022-08-17T02:15:29.018Z,1005.63
2022-08-17T02:16:29.040Z,1005.62
2022-08-17T02:17:29.063Z,1005.60
2022-08-17T02:18:29.083Z,1005.61
2022-08-17T02:19:29.103Z,1005.60
2022-08-17T02:20:41.837Z,1005.59
2022-08-17T02:21:29.147Z,1005.58
2022-08-17T02:22:29.169Z,1005.62
2022-08-17T02:23:29.191Z,1005.63
2022-08-17T02:24:59.963Z,1005.63
2022-08-17T02:25:29.234Z,1005.63
2022-08-17T02:26:29.255Z,1005.65
2022-08-17T02:27:29.278Z,1005.62
2022-08-17T02:28:29.304Z,1005.61
2022-08-17T02:29:29.321Z,1005.62
2022-08-17T02:31:00.334Z,1005.59
2022-08-17T02:31:29.361Z,1005.57
2022-08-17T02:32:29.384Z,1005.57
2022-08-17T02:33:42.644Z,1005.60
2022-08-17T02:34:29.426Z,1005.57
2022-08-17T02:35:29.448Z,1005.62
2022-08-17T02:36:29.469Z,1005.58
2022-08-17T02:37:29.494Z,1005.60
2022-08-17T02:38:29.515Z,1005.63
2022-08-17T02:39:29.572Z,1005.62
2022-08-17T02:40:36.259Z,1005.62
2022-08-17T02:41:29.580Z,1005.62
2022-08-17T02:42:29.599Z,1005.62
2022-08-17T02:43:29.626Z,1005.62
2022-08-17T02:44:39.075Z,1005.56
2022-08-17T02:45:29.662Z,1005.57
2022-08-17T02:46:29.687Z,1005.55
2022-08-17T02:47:29.710Z,1005.52
2022-08-17T02:48:31.596Z,1005.54
2022-08-17T02:49:29.749Z,1005.54
2022-08-17T02:50:29.775Z,1005.53
2022-08-17T02:51:29.795Z,1005.53
2022-08-17T02:52:43.680Z,1005.52
2022-08-17T02:53:35.914Z,1005.53
2022-08-17T02:54:40.500Z,1005.54
2022-08-17T02:55:29.883Z,1005.57
2022-08-17T02:56:29.901Z,1005.55
2022-08-17T02:57:29.921Z,1005.55
2022-08-17T02:58:34.999Z,1005.55
2022-08-17T02:59:29.963Z,1005.50
2022-08-17T03:00:29.985Z,1005.47
2022-08-17T03:01:30.060Z,1005.49
2022-08-17T03:02:30.035Z,1005.53
2022-08-17T03:03:30.056Z,1005.49
2022-08-17T03:04:30.072Z,1005.50
2022-08-17T03:05:30.099Z,1005.50
2022-08-17T03:06:30.124Z,1005.46
2022-08-17T03:07:30.134Z,1005.50
2022-08-17T03:08:30.170Z,1005.50
2022-08-17T03:09:30.176Z,1005.51
2022-08-17T03:10:30.196Z,1005.49
2022-08-17T03:11:30.219Z,1005.51
2022-08-17T03:12:30.243Z,1005.52
2022-08-17T03:13:30.263Z,1005.55
2022-08-17T03:14:30.283Z,1005.51
2022-08-17T03:15:30.307Z,1005.57
2022-08-17T03:16:30.325Z,1005.57
2022-08-17T03:17:30.348Z,1005.61
2022-08-17T03:18:30.368Z,1005.59
2022-08-17T03:19:30.389Z,1005.59
2022-08-17T03:20:30.412Z,1005.60
2022-08-17T03:21:30.432Z,1005.59
2022-08-17T03:22:36.050Z,1005.58
2022-08-17T03:23:30.485Z,1005.55
2022-08-17T03:24:30.499Z,1005.55
2022-08-17T03:25:30.518Z,1005.57
2022-08-17T03:26:30.538Z,1005.56
2022-08-17T03:27:30.560Z,1005.54
2022-08-17T03:28:30.582Z,1005.54
2022-08-17T03:29:30.606Z,1005.51
2022-08-17T03:30:30.624Z,1005.52
2022-08-17T03:31:30.644Z,1005.51
2022-08-17T03:32:30.668Z,1005.45
2022-08-17T03:33:30.688Z,1005.49
2022-08-17T03:34:30.707Z,1005.45
2022-08-17T03:35:30.735Z,1005.46
2022-08-17T03:36:30.761Z,1005.45
2022-08-17T03:37:30.773Z,1005.48
2022-08-17T03:38:39.404Z,1005.47
2022-08-17T03:39:30.827Z,1005.50
2022-08-17T03:40:55.516Z,1005.46
2022-08-17T03:41:30.858Z,1005.47
2022-08-17T03:42:32.071Z,1005.52
2022-08-17T03:43:30.908Z,1005.48
2022-08-17T03:44:30.921Z,1005.48
2022-08-17T03:45:30.943Z,1005.48
2022-08-17T03:46:34.558Z,1005.52
2022-08-17T03:47:30.985Z,1005.51
2022-08-17T03:48:31.011Z,1005.52
2022-08-17T03:49:31.027Z,1005.53
2022-08-17T03:50:31.049Z,1005.50
2022-08-17T03:51:33.464Z,1005.53
2022-08-17T03:52:31.090Z,1005.47
2022-08-17T03:53:31.113Z,1005.46
2022-08-17T03:54:31.134Z,1005.47
2022-08-17T03:55:36.039Z,1005.50
2022-08-17T03:56:31.174Z,1005.52
2022-08-17T03:57:31.198Z,1005.51
2022-08-17T03:58:31.220Z,1005.53
2022-08-17T03:59:31.239Z,1005.51
2022-08-17T04:00:31.260Z,1005.51
2022-08-17T04:01:31.323Z,1005.51
2022-08-17T04:02:31.302Z,1005.51
2022-08-17T04:03:31.323Z,1005.54
2022-08-17T04:04:31.344Z,1005.52
2022-08-17T04:05:31.366Z,1005.55
2022-08-17T04:06:31.391Z,1005.51
2022-08-17T04:07:31.408Z,1005.52
2022-08-17T04:08:31.430Z,1005.56
2022-08-17T04:09:31.463Z,1005.53
2022-08-17T04:10:31.470Z,1005.53
2022-08-17T04:11:31.493Z,1005.54
2022-08-17T04:12:31.513Z,1005.57
2022-08-17T04:13:31.543Z,1005.56
2022-08-17T04:14:31.558Z,1005.57
2022-08-17T04:15:31.579Z,1005.58
2022-08-17T04:16:31.607Z,1005.56
2022-08-17T04:17:31.619Z,1005.51
2022-08-17T04:18:31.644Z,1005.56
2022-08-17T04:19:31.663Z,1005.55
2022-08-17T04:20:31.685Z,1005.52
2022-08-17T04:21:31.708Z,1005.55
2022-08-17T04:22:34.247Z,1005.53
2022-08-17T04:23:31.748Z,1005.55
2022-08-17T04:24:31.773Z,1005.58
2022-08-17T04:25:31.791Z,1005.58
2022-08-17T04:26:52.860Z,1005.57
2022-08-17T04:27:31.847Z,1005.57
2022-08-17T04:28:31.854Z,1005.55
2022-08-17T04:29:54.190Z,1005.57
2022-08-17T04:30:31.899Z,1005.60
2022-08-17T04:31:31.922Z,1005.61
2022-08-17T04:33:03.604Z,1005.58
2022-08-17T04:33:31.964Z,1005.56
2022-08-17T04:34:31.997Z,1005.63
2022-08-17T04:35:32.003Z,1005.63
2022-08-17T04:36:32.041Z,1005.60
2022-08-17T04:37:32.054Z,1005.64
2022-08-17T04:38:32.072Z,1005.62
2022-08-17T04:39:33.884Z,1005.63
2022-08-17T04:40:32.112Z,1005.60
2022-08-17T04:41:32.132Z,1005.61
2022-08-17T04:42:32.192Z,1005.63
2022-08-17T04:43:32.174Z,1005.66
2022-08-17T04:44:37.417Z,1005.66
2022-08-17T04:45:32.608Z,1005.71
2022-08-17T04:46:32.238Z,1005.74
2022-08-17T04:47:32.262Z,1005.72
2022-08-17T04:48:36.439Z,1005.74
2022-08-17T04:49:32.304Z,1005.76
2022-08-17T04:50:32.329Z,1005.76
2022-08-17T04:51:32.348Z,1005.74
2022-08-17T04:52:43.242Z,1005.72
2022-08-17T04:53:32.393Z,1005.74
2022-08-17T04:54:32.412Z,1005.76
2022-08-17T04:55:32.450Z,1005.75
2022-08-17T04:56:32.456Z,1005.83
2022-08-17T04:57:39.450Z,1005.79
2022-08-17T04:58:32.499Z,1005.79
2022-08-17T04:59:32.521Z,1005.81
2022-08-17T05:00:32.543Z,1005.80
2022-08-17T05:01:32.594Z,1005.83
2022-08-17T05:02:32.584Z,1005.85
2022-08-17T05:03:32.607Z,1005.87
2022-08-17T05:04:34.853Z,1005.89
2022-08-17T05:05:32.651Z,1005.90
2022-08-17T05:06:32.672Z,1005.89
2022-08-17T05:07:32.695Z,1005.89
2022-08-17T05:08:32.714Z,1005.93
2022-08-17T05:09:32.737Z,1005.93
2022-08-17T05:10:32.759Z,1005.89
2022-08-17T05:11:32.784Z,1005.93
2022-08-17T05:12:32.804Z,1005.98
2022-08-17T05:13:32.825Z,1005.98
2022-08-17T05:14:33.883Z,1005.99
2022-08-17T05:15:33.207Z,1006.01
2022-08-17T05:16:32.889Z,1006.02
2022-08-17T05:17:32.914Z,1006.02
2022-08-17T05:18:32.935Z,1006.02
2022-08-17T05:19:32.958Z,1006.01
2022-08-17T05:20:32.979Z,1006.01
2022-08-17T05:21:33.002Z,1006.04
2022-08-17T05:22:33.025Z,1006.01
2022-08-17T05:23:41.858Z,1006.03
2022-08-17T05:24:38.559Z,1006.02
2022-08-17T05:25:34.547Z,1006.00
2022-08-17T05:26:33.110Z,1006.02
2022-08-17T05:27:35.454Z,1006.03
2022-08-17T05:28:33.158Z,1005.98
2022-08-17T05:29:35.334Z,1006.05
2022-08-17T05:30:33.201Z,1006.02
2022-08-17T05:31:33.221Z,1005.99
2022-08-17T05:32:38.614Z,1006.04
2022-08-17T05:33:33.273Z,1006.04
2022-08-17T05:34:33.289Z,1006.05
2022-08-17T05:35:33.310Z,1006.04
2022-08-17T05:36:41.591Z,1006.02
2022-08-17T05:37:33.355Z,1006.03
2022-08-17T05:38:33.379Z,1006.03
2022-08-17T05:39:33.438Z,1006.00
2022-08-17T05:40:33.423Z,1006.03
2022-08-17T05:41:33.445Z,1005.99
2022-08-17T05:42:33.467Z,1006.03
2022-08-17T05:43:33.488Z,1006.02
2022-08-17T05:44:33.512Z,1006.07
2022-08-17T05:45:54.557Z,1006.07
2022-08-17T05:46:33.557Z,1006.11
2022-08-17T05:47:33.579Z,1006.13
2022-08-17T05:48:39.264Z,1006.11
2022-08-17T05:49:33.626Z,1006.17
2022-08-17T05:50:33.648Z,1006.15
2022-08-17T05:51:33.670Z,1006.15
2022-08-17T05:52:33.693Z,1006.13
2022-08-17T05:53:35.167Z,1006.14
2022-08-17T05:54:33.737Z,1006.10
2022-08-17T05:55:33.760Z,1006.13
2022-08-17T05:56:33.782Z,1006.15
2022-08-17T05:57:33.805Z,1006.13
2022-08-17T05:58:33.829Z,1006.13
2022-08-17T05:59:33.850Z,1006.14
2022-08-17T06:00:33.874Z,1006.13
2022-08-17T06:01:33.930Z,1006.16
2022-08-17T06:02:33.931Z,1006.18
2022-08-17T06:03:33.942Z,1006.16
2022-08-17T06:04:33.967Z,1006.18
2022-08-17T06:05:34.002Z,1006.15
2022-08-17T06:06:34.011Z,1006.13
2022-08-17T06:07:34.035Z,1006.14
2022-08-17T06:08:34.064Z,1006.19
2022-08-17T06:09:34.171Z,1006.15
2022-08-17T06:10:34.103Z,1006.23
2022-08-17T06:11:35.294Z,1006.22
2022-08-17T06:12:34.148Z,1006.21
2022-08-17T06:13:34.174Z,1006.22
2022-08-17T06:14:34.196Z,1006.25
2022-08-17T06:15:34.219Z,1006.29
2022-08-17T06:16:34.836Z,1006.34
2022-08-17T06:17:34.266Z,1006.34
2022-08-17T06:18:34.290Z,1006.34
2022-08-17T06:19:34.317Z,1006.36
2022-08-17T06:20:34.347Z,1006.32
2022-08-17T06:21:34.358Z,1006.32
2022-08-17T06:22:34.382Z,1006.38
2022-08-17T06:23:34.405Z,1006.35
2022-08-17T06:24:34.432Z,1006.33
2022-08-17T06:25:34.452Z,1006.32
2022-08-17T06:26:38.598Z,1006.32
2022-08-17T06:27:34.500Z,1006.35
2022-08-17T06:28:34.519Z,1006.34
2022-08-17T06:29:34.546Z,1006.38
2022-08-17T06:30:58.382Z,1006.41
2022-08-17T06:31:34.597Z,1006.38
2022-08-17T06:32:34.617Z,1006.36
2022-08-17T06:33:34.641Z,1006.38
2022-08-17T06:34:34.664Z,1006.35
2022-08-17T06:35:34.693Z,1006.38
2022-08-17T06:36:34.712Z,1006.39
2022-08-17T06:37:34.735Z,1006.42
2022-08-17T06:38:38.351Z,1006.43
2022-08-17T06:39:34.819Z,1006.46
2022-08-17T06:40:34.811Z,1006.46
2022-08-17T06:41:37.802Z,1006.48
2022-08-17T06:42:59.999Z,1006.46
2022-08-17T06:43:34.885Z,1006.47
2022-08-17T06:44:43.371Z,1006.50
2022-08-17T06:45:34.934Z,1006.50
2022-08-17T06:46:34.960Z,1006.49
2022-08-17T06:47:34.988Z,1006.41
2022-08-17T06:48:35.022Z,1006.44
2022-08-17T06:49:35.041Z,1006.44
2022-08-17T06:50:35.068Z,1006.48
2022-08-17T06:51:35.094Z,1006.48
2022-08-17T06:52:46.799Z,1006.44
2022-08-17T06:53:35.147Z,1006.44
2022-08-17T06:54:35.174Z,1006.46
2022-08-17T06:55:38.186Z,1006.47
2022-08-17T06:56:53.884Z,1006.46
2022-08-17T06:57:35.254Z,1006.49
2022-08-17T06:58:35.281Z,1006.44
2022-08-17T06:59:54.263Z,1006.48
2022-08-17T07:00:35.373Z,1006.47
2022-08-17T07:01:35.419Z,1006.53
2022-08-17T07:02:51.512Z,1006.51
2022-08-17T07:03:35.420Z,1006.53
2022-08-17T07:04:35.449Z,1006.52
2022-08-17T07:05:35.475Z,1006.55
2022-08-17T07:06:37.921Z,1006.56
2022-08-17T07:07:35.533Z,1006.55
2022-08-17T07:08:35.632Z,1006.55
2022-08-17T07:09:35.589Z,1006.56
2022-08-17T07:10:35.621Z,1006.57
2022-08-17T07:11:35.649Z,1006.59
2022-08-17T07:12:35.676Z,1006.56
2022-08-17T07:13:35.706Z,1006.57
2022-08-17T07:14:35.735Z,1006.54
2022-08-17T07:15:35.764Z,1006.50
2022-08-17T07:16:35.792Z,1006.51
2022-08-17T07:17:57.734Z,1006.47
2022-08-17T07:18:35.851Z,1006.50
2022-08-17T07:19:35.902Z,1006.48
2022-08-17T07:20:35.910Z,1006.47
2022-08-17T07:21:35.958Z,1006.51
2022-08-17T07:22:53.558Z,1006.51
2022-08-17T07:23:35.999Z,1006.48
2022-08-17T07:24:36.032Z,1006.45
2022-08-17T07:25:36.068Z,1006.52
2022-08-17T07:26:36.088Z,1006.48
2022-08-17T07:27:36.119Z,1006.47
2022-08-17T07:28:36.152Z,1006.48
2022-08-17T07:29:36.180Z,1006.51
2022-08-17T07:30:37.257Z,1006.51
2022-08-17T07:31:36.242Z,1006.53
2022-08-17T07:32:36.269Z,1006.53
2022-08-17T07:33:36.302Z,1006.56
2022-08-17T07:34:36.334Z,1006.55
2022-08-17T07:35:40.804Z,1006.56
2022-08-17T07:36:36.395Z,1006.57
2022-08-17T07:37:36.427Z,1006.56
2022-08-17T07:38:36.455Z,1006.55
2022-08-17T07:39:36.532Z,1006.52
2022-08-17T07:40:36.605Z,1006.55
2022-08-17T07:41:53.493Z,1006.57
2022-08-17T07:42:36.577Z,1006.55
2022-08-17T07:43:36.610Z,1006.58
2022-08-17T07:44:36.642Z,1006.54
2022-08-17T07:45:36.676Z,1006.58
2022-08-17T07:46:36.703Z,1006.62
2022-08-17T07:47:36.735Z,1006.61
2022-08-17T07:48:36.767Z,1006.63
2022-08-17T07:49:36.798Z,1006.64
2022-08-17T07:50:36.827Z,1006.65
2022-08-17T07:51:36.873Z,1006.63
2022-08-17T07:52:51.800Z,1006.63
2022-08-17T07:53:36.924Z,1006.62
2022-08-17T07:54:36.953Z,1006.63
2022-08-17T07:55:36.986Z,1006.63
2022-08-17T07:56:37.019Z,1006.60
2022-08-17T07:57:37.054Z,1006.65
2022-08-17T07:58:37.083Z,1006.63
2022-08-17T07:59:37.114Z,1006.67
2022-08-17T08:00:37.146Z,1006.64
2022-08-17T08:01:39.542Z,1006.63
2022-08-17T08:02:37.211Z,1006.62
2022-08-17T08:03:37.243Z,1006.65
2022-08-17T08:05:02.797Z,1006.66
2022-08-17T08:05:49.785Z,1006.64
2022-08-17T08:06:37.337Z,1006.68
2022-08-17T08:07:37.370Z,1006.69
2022-08-17T08:08:37.402Z,1006.69
2022-08-17T08:09:37.434Z,1006.67
2022-08-17T08:10:37.466Z,1006.67
2022-08-17T08:11:41.241Z,1006.65
2022-08-17T08:12:37.530Z,1006.60
2022-08-17T08:13:37.574Z,1006.53
2022-08-17T08:14:37.601Z,1006.57
2022-08-17T08:15:37.626Z,1006.53
2022-08-17T08:16:37.657Z,1006.58
2022-08-17T08:17:37.689Z,1006.58
2022-08-17T08:18:39.704Z,1006.57
2022-08-17T08:19:37.751Z,1006.62
2022-08-17T08:20:51.792Z,1006.62
2022-08-17T08:21:37.816Z,1006.60
2022-08-17T08:22:37.862Z,1006.67
2022-08-17T08:23:37.875Z,1006.69
2022-08-17T08:24:37.929Z,1006.71
2022-08-17T08:25:37.937Z,1006.76
2022-08-17T08:26:37.967Z,1006.72
2022-08-17T08:27:37.998Z,1006.74
2022-08-17T08:28:38.027Z,1006.75
2022-08-17T08:29:38.059Z,1006.75
2022-08-17T08:30:38.090Z,1006.71
2022-08-17T08:31:42.156Z,1006.70
2022-08-17T08:32:38.145Z,1006.70
2022-08-17T08:33:38.178Z,1006.70
2022-08-17T08:34:58.598Z,1006.66
2022-08-17T08:35:38.235Z,1006.69
2022-08-17T08:37:02.049Z,1006.68
2022-08-17T08:37:42.630Z,1006.68
2022-08-17T08:38:38.323Z,1006.68
2022-08-17T08:39:38.412Z,1006.69
2022-08-17T08:40:38.381Z,1006.64
2022-08-17T08:41:38.409Z,1006.63
2022-08-17T08:42:38.444Z,1006.58
2022-08-17T08:43:38.466Z,1006.60
2022-08-17T08:45:00.028Z,1006.64
2022-08-17T08:45:38.526Z,1006.55
2022-08-17T08:46:38.552Z,1006.57
2022-08-17T08:47:38.584Z,1006.56
2022-08-17T08:48:53.933Z,1006.53
2022-08-17T08:50:02.512Z,1006.55
2022-08-17T08:50:38.801Z,1006.59
2022-08-17T08:51:38.703Z,1006.58
2022-08-17T08:52:38.723Z,1006.61
2022-08-17T08:53:38.753Z,1006.57
2022-08-17T08:54:38.780Z,1006.58
2022-08-17T08:55:38.824Z,1006.58
2022-08-17T08:56:38.838Z,1006.57
2022-08-17T08:57:38.865Z,1006.60
2022-08-17T08:58:41.992Z,1006.61
2022-08-17T08:59:41.895Z,1006.52
2022-08-17T09:00:38.949Z,1006.55
2022-08-17T09:01:39.047Z,1006.56
2022-08-17T09:02:39.003Z,1006.62
2022-08-17T09:03:52.324Z,1006.57
2022-08-17T09:05:10.000Z,1006.56
2022-08-17T09:05:39.094Z,1006.61
2022-08-17T09:06:39.913Z,1006.64
2022-08-17T09:07:39.144Z,1006.62
2022-08-17T09:08:39.170Z,1006.56
2022-08-17T09:09:39.199Z,1006.58
2022-08-17T09:10:39.226Z,1006.60
2022-08-17T09:12:02.963Z,1006.58
2022-08-17T09:12:39.284Z,1006.60
2022-08-17T09:13:39.311Z,1006.55
2022-08-17T09:14:45.163Z,1006.60
2022-08-17T09:15:39.366Z,1006.61
2022-08-17T09:16:39.493Z,1006.60
2022-08-17T09:17:39.423Z,1006.59
2022-08-17T09:19:00.699Z,1006.61
2022-08-17T09:19:39.478Z,1006.62
2022-08-17T09:20:39.504Z,1006.58
2022-08-17T09:21:47.698Z,1006.55
2022-08-17T09:22:39.562Z,1006.54
2022-08-17T09:23:39.589Z,1006.51
2022-08-17T09:24:39.615Z,1006.51
2022-08-17T09:25:39.645Z,1006.50
2022-08-17T09:26:39.670Z,1006.47
2022-08-17T09:27:39.700Z,1006.50
2022-08-17T09:28:39.726Z,1006.52
2022-08-17T09:29:39.754Z,1006.57
2022-08-17T09:30:39.783Z,1006.54
2022-08-17T09:31:46.410Z,1006.58
2022-08-17T09:32:39.837Z,1006.60
2022-08-17T09:33:39.878Z,1006.61
2022-08-17T09:34:39.892Z,1006.55
2022-08-17T09:35:39.920Z,1006.60
2022-08-17T09:36:39.950Z,1006.55
2022-08-17T09:37:39.976Z,1006.53
2022-08-17T09:38:40.006Z,1006.49
2022-08-17T09:39:40.075Z,1006.50
2022-08-17T09:40:40.058Z,1006.51
2022-08-17T09:41:40.087Z,1006.50
2022-08-17T09:42:40.116Z,1006.51
2022-08-17T09:43:40.142Z,1006.58
2022-08-17T09:44:40.174Z,1006.59
2022-08-17T09:45:40.201Z,1006.62
2022-08-17T09:46:40.227Z,1006.63
2022-08-17T09:47:40.256Z,1006.63
2022-08-17T09:48:40.283Z,1006.62
2022-08-17T09:49:40.310Z,1006.69
2022-08-17T09:51:03.487Z,1006.66
2022-08-17T09:51:40.368Z,1006.62
2022-08-17T09:52:40.395Z,1006.64
2022-08-17T09:53:40.424Z,1006.64
2022-08-17T09:54:40.773Z,1006.58
2022-08-17T09:55:40.480Z,1006.59
2022-08-17T09:56:46.063Z,1006.53
2022-08-17T09:57:40.538Z,1006.59
2022-08-17T09:58:40.568Z,1006.63
2022-08-17T09:59:40.593Z,1006.60
2022-08-17T10:00:40.621Z,1006.65
2022-08-17T10:01:40.728Z,1006.62
2022-08-17T10:02:40.680Z,1006.57
2022-08-17T10:03:40.708Z,1006.56
2022-08-17T10:04:40.736Z,1006.58
2022-08-17T10:05:40.768Z,1006.57
2022-08-17T10:06:40.792Z,1006.55
2022-08-17T10:07:40.822Z,1006.53
2022-08-17T10:08:40.852Z,1006.55
2022-08-17T10:09:40.882Z,1006.50
2022-08-17T10:10:41.875Z,1006.49
2022-08-17T10:11:44.825Z,1006.51
2022-08-17T10:12:46.418Z,1006.54
2022-08-17T10:13:41.000Z,1006.53
2022-08-17T10:14:43.997Z,1006.50
2022-08-17T10:15:42.565Z,1006.50
2022-08-17T10:16:41.088Z,1006.53
2022-08-17T10:17:41.128Z,1006.50
2022-08-17T10:18:41.148Z,1006.53
2022-08-17T10:19:43.994Z,1006.51
2022-08-17T10:20:41.210Z,1006.47
2022-08-17T10:21:41.241Z,1006.48
2022-08-17T10:22:41.273Z,1006.53
2022-08-17T10:23:41.303Z,1006.51
2022-08-17T10:24:41.335Z,1006.48
2022-08-17T10:25:56.151Z,1006.49
2022-08-17T10:26:56.411Z,1006.51
2022-08-17T10:27:41.430Z,1006.45
2022-08-17T10:28:41.461Z,1006.51
2022-08-17T10:29:48.965Z,1006.50
2022-08-17T10:30:41.526Z,1006.53
2022-08-17T10:31:41.564Z,1006.58
2022-08-17T10:32:41.606Z,1006.53
2022-08-17T10:33:41.624Z,1006.57
2022-08-17T10:34:41.973Z,1006.57
2022-08-17T10:35:41.689Z,1006.54
2022-08-17T10:36:41.729Z,1006.49
2022-08-17T10:37:41.765Z,1006.54
2022-08-17T10:38:41.791Z,1006.47
2022-08-17T10:39:51.959Z,1006.50
2022-08-17T10:40:41.859Z,1006.46
2022-08-17T10:41:41.894Z,1006.43
2022-08-17T10:42:41.928Z,1006.46
2022-08-17T10:43:41.964Z,1006.46
2022-08-17T10:44:42.000Z,1006.50
2022-08-17T10:45:42.035Z,1006.49
2022-08-17T10:46:42.069Z,1006.51
2022-08-17T10:47:54.917Z,1006.52
2022-08-17T10:48:42.140Z,1006.56
2022-08-17T10:49:42.226Z,1006.54
2022-08-17T10:50:42.212Z,1006.53
2022-08-17T10:51:42.257Z,1006.57
2022-08-17T10:52:42.288Z,1006.55
2022-08-17T10:53:42.321Z,1006.52
2022-08-17T10:54:42.357Z,1006.54
2022-08-17T10:55:42.400Z,1006.50
2022-08-17T10:56:42.430Z,1006.52
2022-08-17T10:57:42.467Z,1006.47
2022-08-17T10:58:42.504Z,1006.47
2022-08-17T10:59:42.542Z,1006.47
2022-08-17T11:00:42.612Z,1006.46
2022-08-17T11:01:42.615Z,1006.43
2022-08-17T11:02:42.654Z,1006.43
2022-08-17T11:03:42.692Z,1006.41
2022-08-17T11:04:42.730Z,1006.36
2022-08-17T11:05:43.978Z,1006.40
2022-08-17T11:06:42.808Z,1006.36
2022-08-17T11:07:42.847Z,1006.35
2022-08-17T11:08:42.885Z,1006.35
2022-08-17T11:09:42.926Z,1006.34
2022-08-17T11:10:42.964Z,1006.35
2022-08-17T11:11:43.003Z,1006.33
2022-08-17T11:12:43.101Z,1006.31
2022-08-17T11:13:43.083Z,1006.26
2022-08-17T11:14:43.121Z,1006.21
2022-08-17T11:15:43.161Z,1006.21
2022-08-17T11:16:43.202Z,1006.26
2022-08-17T11:17:43.242Z,1006.24
2022-08-17T11:18:43.280Z,1006.27
2022-08-17T11:19:43.318Z,1006.21
2022-08-17T11:20:43.359Z,1006.11
2022-08-17T11:21:43.400Z,1006.21
2022-08-17T11:22:43.444Z,1006.17
2022-08-17T11:23:43.477Z,1006.13
2022-08-17T11:24:45.548Z,1006.18
2022-08-17T11:25:43.554Z,1006.11
2022-08-17T11:26:43.592Z,1006.11
2022-08-17T11:27:43.631Z,1006.11
2022-08-17T11:28:43.668Z,1006.16
2022-08-17T11:29:43.706Z,1006.11
2022-08-17T11:30:44.394Z,1006.22
2022-08-17T11:31:43.794Z,1006.30
2022-08-17T11:32:47.696Z,1006.30
2022-08-17T11:33:43.858Z,1006.33
2022-08-17T11:34:43.894Z,1006.26
2022-08-17T11:35:43.932Z,1006.33
2022-08-17T11:36:43.971Z,1006.36
2022-08-17T11:37:44.007Z,1006.31
2022-08-17T11:38:44.046Z,1006.31
2022-08-17T11:39:44.122Z,1006.23
2022-08-17T11:40:44.121Z,1006.18
2022-08-17T11:41:44.161Z,1006.10
2022-08-17T11:42:44.239Z,1006.13
2022-08-17T11:43:44.237Z,1006.21
2022-08-17T11:44:44.277Z,1006.15
2022-08-17T11:45:44.314Z,1006.10
2022-08-17T11:46:44.355Z,1006.32
2022-08-17T11:47:56.990Z,1006.27
2022-08-17T11:48:44.428Z,1006.25
2022-08-17T11:49:44.466Z,1006.22
2022-08-17T11:50:44.506Z,1006.22
2022-08-17T11:51:44.542Z,1006.25
2022-08-17T11:52:46.719Z,1006.21
2022-08-17T11:53:44.620Z,1006.17
2022-08-17T11:54:44.658Z,1006.17
2022-08-17T11:55:45.101Z,1006.02
2022-08-17T11:56:44.738Z,1006.06
2022-08-17T11:57:44.776Z,1005.98
2022-08-17T11:58:44.838Z,1006.03
2022-08-17T11:59:44.900Z,1006.08
2022-08-17T12:00:44.895Z,1006.15
2022-08-17T12:01:44.932Z,1006.18
2022-08-17T12:02:48.110Z,1006.22
2022-08-17T12:03:53.940Z,1006.17
2022-08-17T12:04:45.128Z,1006.11
2022-08-17T12:05:45.094Z,1006.08